METAR Data
IDs: Format: Raw Decoded Include TAF

Data at: 1159 UTC 21 Sep 2018

KMAF 211153Z 31005KT 9SM FEW011 SCT020 OVC041 22/21 A2993 RMK AO2 SLP092 60000 70013 T02170211 10228 20211 53006
KMAF 211139Z 29004KT 10SM SCT010 BKN020 OVC041 22/21 A2993 RMK AO2 T02170211
KMAF 211053Z 29003KT 10SM OVC008 22/21 A2992 RMK AO2 CIG 005V011 SLP085 T02170211
KMAF 211025Z AUTO 24004KT 10SM OVC008 22/21 A2991 RMK AO2 CIG 007V011 T02170206
KMAF 210953Z AUTO 00000KT 10SM BKN012 BKN026 OVC070 22/21 A2991 RMK AO2 SLP080 T02170206
KMAF 210945Z AUTO 00000KT 10SM SCT012 BKN026 OVC070 21/21 A2991 RMK AO2 T02110206
KMAF 210923Z AUTO 27003KT 10SM SCT006 OVC075 21/21 A2991 RMK AO2 T02110206
KMAF 210853Z AUTO 23003KT 10SM BKN007 21/21 A2991 RMK AO2 SLP083 60000 T02110206 56001
KMAF 210753Z AUTO 19009KT 140V210 7SM BKN005 OVC040 22/22 A2991 RMK AO2 SLP082 T02220217
KMAF 210750Z AUTO 18005KT 7SM BKN005 OVC040 22/22 A2991 RMK AO2
KMAF 210715Z AUTO 17007KT 6SM BR FEW006 OVC042 23/22 A2991 RMK AO2 T02280217
KMAF 210653Z AUTO 17008KT 5SM BR OVC042 23/22 A2992 RMK AO2 RAB26E35 SLP083 P0000 T02280217
KMAF 210553Z AUTO 18007KT 8SM FEW006 SCT010 BKN060 22/21 A2993 RMK AO2 RAE34 SLP090 P0000 60013 T02170211 10272 20217 402890211 58001
KMAF 210545Z AUTO 18008KT 9SM SCT008 BKN065 BKN085 22/21 A2993 RMK AO2 RAE34 P0000 T02170211
KMAF 210538Z AUTO 17009KT 10SM SCT007 BKN011 BKN085 22/21 A2993 RMK AO2 RAE34 P0000 T02170211
KMAF 210514Z AUTO 16014KT 5SM -RA BR BKN009 BKN022 OVC070 22/22 A2993 RMK AO2 LTG DSNT S P0000 T02220217
KMAF 210504Z AUTO 15011KT 6SM -RA BR SCT009 BKN017 OVC085 22/22 A2993 RMK AO2 LTG DSNT S P0000 T02220217
KMAF 210453Z AUTO 16011KT 5SM -RA BR FEW014 BKN075 OVC090 23/22 A2994 RMK AO2 SLP093 P0013 T02280217
KMAF 210353Z 18008KT 7SM -RA FEW030 BKN110 23/20 A2994 RMK AO2 LTG DSNT S RAB22 SLP094 P0000 T02330200
KMAF 210253Z 17011KT 10SM BKN100 25/19 A2993 RMK AO2 SLP091 T02500194 53020
KMAF 210153Z 16012KT 10SM BKN095 26/19 A2990 RMK AO2 SLP081 T02560189
KMAF 210053Z 18012KT 10SM CLR 27/18 A2988 RMK AO2 SLP074 T02670183
KMAF 202353Z 19014KT 10SM FEW100 27/18 A2987 RMK AO2 SLP068 T02720183 10289 20267 55003
KMAF 202253Z 18013G21KT 10SM CLR 28/18 A2986 RMK AO2 SLP065 T02780178
KMAF 202153Z 17017KT 10SM FEW037 SCT045 29/18 A2986 RMK AO2 SLP063 T02890178
KMAF 202053Z 18013G19KT 10SM BKN090 29/17 A2988 RMK AO2 SLP070 T02890172 58024
KMAF 201953Z 21014KT 10SM FEW075 BKN095 28/18 A2990 RMK AO2 SLP080 T02830178
KMAF 201853Z 20014KT 10SM BKN060 28/18 A2993 RMK AO2 SLP092 T02780178
KMAF 201753Z 17018G23KT 10SM BKN035 BKN044 27/18 A2995 RMK AO2 PK WND 17027/1741 SLP097 T02720178 10283 20222 58007
KMAF 201653Z 17018KT 10SM SCT030 SCT038 BKN055 27/18 A2997 RMK AO2 PK WND 16028/1605 SLP102 T02720183
KMAF 201553Z 18019G26KT 9SM FEW023 SCT029 SCT060 26/19 A2998 RMK AO2 PK WND 18027/1537 SLP105 T02560189
KMAF 201551Z 19020G26KT 9SM FEW023 SCT029 SCT060 26/19 A2998 RMK AO2 PK WND 18027/1537
KMAF 201453Z 17019KT 8SM BKN018 24/19 A2997 RMK AO2 SLP105 T02390194 52009
KMAF 201437Z 17018G24KT 8SM BKN016 24/19 A2997 RMK AO2 T02390194
KMAF 201353Z COR 17016KT 10SM SCT012 23/20 A2996 RMK AO2 SLP102 T02280200
KMAF 201253Z 17013KT 9SM SCT011 22/19 A2995 RMK AO2 SLP094 T02220194
KMAF 201153Z 17014KT 10SM CLR 22/19 A2994 RMK AO2 SLP091 T02220194 10222 20211 55002
KMAF 201053Z 16014KT 10SM CLR 22/19 A2993 RMK AO2 SLP088 T02170194
KMAF 200953Z AUTO 17012KT 10SM CLR 22/18 A2994 RMK AO2 SLP090 T02220183
KMAF 200853Z AUTO 16011KT 10SM CLR 22/18 A2995 RMK AO2 SLP092 T02170183 58004
KMAF 200753Z 17012KT 10SM CLR 22/17 A2995 RMK AO2 SLP094 T02170172
KMAF 200653Z 16007KT 10SM CLR 21/17 A2996 RMK AO2 SLP096 T02110167
KMAF 200553Z 16008KT 10SM CLR 22/16 A2996 RMK AO2 SLP098 T02220161 10300 20222 403220206 58002
KMAF 200453Z 16008KT 10SM CLR 23/16 A2997 RMK AO2 SLP101 T02280161
KMAF 200353Z 18007KT 10SM CLR 24/18 A2998 RMK AO2 SLP107 T02390183
KMAF 200253Z 18011KT 10SM CLR 25/19 A2997 RMK AO2 SLP101 T02500189 53027
KMAF 200153Z 17014KT 10SM CLR 26/18 A2994 RMK AO2 SLP093 T02610183
KMAF 200053Z 17018G26KT 10SM CLR 28/17 A2990 RMK AO2 PK WND 17026/0051 SLP080 T02830172